Cataula, Georgia
Current Conditions -  °F | °C
As of 9:51 PM on Saturday 25 Oct 2014 (Local Time) from KCSG Reporting Station
Clear Clear  
Wind Chill: 67°   Ceiling: Unl
Heat Index: 67°   Visibility: 10mi
Dew Point: 51°   Wind: 7mph
Humidity: 57%   Direction: 350°N
Pressure: 30.04"   Gusts: NA
Location:  32.66°N, 84.87°W
Report Text: KCSG 260151Z AUTO 35006KT 10SM CLR 19/11 A3004 RMK AO2 SLP169 T01940106
Loading
Personal Weather Stations






























Interactive Weather Map New forecast layout! Learn more

10-Day Weather Forecast

Advertisements
Track Severe Weather on mobile